Nearby METAR Reports

 

KDWH - Houston/Dw Hooks, Texas, USA
Distance from station: WNW 3mi, 6km
Updated: 11/27/2021 1:53am
Clear
Clear
 Wind from calm
Wind: Calm
Temperature: 46°F , 8°C
Dew Point: 43°F , 6°C
Humidity: 87%
Barometer: 30.17 inHg , 1021.7 hPa
Clouds: Clear
Visibility: 10 miles , 16 km
2021/11/27 07:53 KDWH 270753Z AUTO 00000KT 10SM CLR 08/06 A3017 RMK AO2 SLP215 T00830061
KIAH - Houston/Intnl, Texas, USA
Distance from station: ESE 9mi, 14km
Updated: 11/27/2021 1:53am
Overcast
Overcast
 Wind from calm
Wind: Calm
Temperature: 48°F , 9°C
Dew Point: 43°F , 6°C
Humidity: 82%
Barometer: 30.17 inHg , 1021.7 hPa
Clouds: Overcast
Visibility: 10 miles , 16 km
Cloud details: Overcast 17000 ft
2021/11/27 07:53 KIAH 270753Z 00000KT 10SM OVC170 09/06 A3017 RMK AO2 SLP218 T00890056
 
KCXO - Conroe, Texas, USA
Distance from station: NNE 21mi, 34km
Updated: 11/27/2021 1:53am
Clear
Clear
 Wind from calm
Wind: Calm
Temperature: 43°F , 6°C
Dew Point: 43°F , 6°C
Humidity: 100%
Barometer: 30.17 inHg , 1021.7 hPa
Clouds: Clear
Visibility: 10 miles , 16 km
2021/11/27 07:53 KCXO 270753Z AUTO 00000KT 10SM CLR 06/06 A3017 RMK AO2 SLP215 T00610056
KMCJ - Houston/Univ, Texas, USA
Distance from station: SSE 24mi, 39km
Updated: 11/27/2021 2:15am
Clear
Clear
 Wind from calm
Wind: Calm
Temperature: 50°F , 10°C
Dew Point: 36°F , 2°C
Humidity: 58%
Barometer: 30.14 inHg , 1020.7 hPa
Clouds: Clear
Visibility: 10 miles , 16 km
2021/11/27 08:15 KMCJ 270815Z AUTO 00000KT 10SM CLR 10/02 A3014 RMK A01
 
KTME - Houston Exec, Texas, USA
Distance from station: SW 30mi, 48km
Updated: 11/27/2021 2:15am
Clear
Clear
 Wind from calm
Wind: Calm
Temperature: 48°F , 9°C
Dew Point: 45°F , 7°C
Humidity: 87%
Barometer: 30.18 inHg , 1022 hPa
Clouds: Clear
Visibility: 9 miles , 14 km
2021/11/27 08:15 KTME 270815Z AUTO 00000KT 9SM CLR 09/07 A3018 RMK AO2
KHOU - Houston/Hobby, Texas, USA
Distance from station: SSE 32mi, 51km
Updated: 11/27/2021 1:53am
Mostly cloudy
Mostly cloudy
 Wind from calm
Wind: Calm
Temperature: 52°F , 11°C
Dew Point: 41°F , 5°C
Humidity: 67%
Barometer: 30.16 inHg , 1021.3 hPa
Clouds: Mostly cloudy
Visibility: 10 miles , 16 km
Cloud details: Partly cloudy 16000 ft
Mostly cloudy 25000 ft
2021/11/27 07:53 KHOU 270753Z 00000KT 10SM SCT160 BKN250 11/05 A3016 RMK AO2 SLP219 T01060050
 
KSGR - Houston/Sugar La, Texas, USA
Distance from station: SSW 32mi, 51km
Updated: 11/27/2021 1:53am
Clear
Clear
 Wind from calm
Wind: Calm
Temperature: 50°F , 10°C
Dew Point: 41°F , 5°C
Humidity: 71%
Barometer: 30.16 inHg , 1021.3 hPa
Clouds: Clear
Visibility: 10 miles , 16 km
2021/11/27 07:53 KSGR 270753Z AUTO 00000KT 10SM CLR 10/05 A3016 RMK AO2 SLP214 T01000050
K6R3 - Cleveland Muni, Texas, USA
Distance from station: NE 36mi, 58km
Updated: 11/27/2021 2:15am
Clear
Clear
 Wind from calm
Wind: Calm
Temperature: 45°F , 7°C
Dew Point: 45°F , 7°C
Humidity: 100%
Barometer: 30.18 inHg , 1022 hPa
Clouds: Clear
Visibility: 7 miles , 11 km
2021/11/27 08:15 K6R3 270815Z AUTO 00000KT 7SM CLR 07/07 A3018 RMK AO2 T00670067
 
KAXH - Houston/Southwst, Texas, USA
Distance from station: S 37mi, 60km
Updated: 11/27/2021 2:15am
Clear
Clear
 Wind from calm
Wind: Calm
Temperature: 46°F , 8°C
Dew Point: 45°F , 7°C
Humidity: 93%
Barometer: 30.17 inHg , 1021.7 hPa
Clouds: Clear
Visibility: 10 miles , 16 km
2021/11/27 08:15 KAXH 270815Z AUTO 00000KT 10SM CLR 08/07 A3017 RMK AO2 T00840073
KEFD - Houston/Ellingto, Texas, USA
Distance from station: SSE 37mi, 60km
Updated: 11/27/2021 1:50am
Clear
Clear
 Wind from calm
Wind: Calm
Temperature: 48°F , 9°C
Dew Point: 41°F , 5°C
Humidity: 76%
Barometer: 30.18 inHg , 1022 hPa
Clouds: Clear
Visibility: 10 miles , 16 km
2021/11/27 07:50 KEFD 270750Z 00000KT 10SM CLR 09/05 A3018
 
KLVJ - Houston, Texas, USA
Distance from station: SSE 40mi, 64km
Updated: 11/27/2021 1:53am
Clear
Clear
 Wind from calm
Wind: Calm
Temperature: 46°F , 8°C
Dew Point: 43°F , 6°C
Humidity: 87%
Barometer: 30.18 inHg , 1022 hPa
Clouds: Clear
Visibility: 10 miles , 16 km
2021/11/27 07:53 KLVJ 270753Z AUTO 00000KT 10SM CLR 08/06 A3018 RMK AO2 SLP219 T00830056
KUTS - Huntsville, Texas, USA
Distance from station: N 48mi, 78km
Updated: 11/27/2021 1:53am
Clear
Clear
 Wind from calm
Wind: Calm
Temperature: 46°F , 8°C
Dew Point: 41°F , 5°C
Humidity: 82%
Barometer: 30.16 inHg , 1021.3 hPa
Clouds: Clear
Visibility: 10 miles , 16 km
2021/11/27 07:53 KUTS 270753Z AUTO 00000KT 10SM CLR 08/05 A3016 RMK AO2 SLP213 T00780050